sensor_id;sensor_type;location;lat;lon;timestamp;pressure;altitude;pressure_sealevel;temperature;humidity
48790;BME280;41718;51.980;5.734;2022-07-21T00:03:42;101621.16;;;19.28;100.00
48790;BME280;41718;51.980;5.734;2022-07-21T00:08:44;101622.13;;;19.20;100.00
48790;BME280;41718;51.980;5.734;2022-07-21T00:13:46;101617.84;;;19.13;100.00
48790;BME280;41718;51.980;5.734;2022-07-21T00:18:48;101618.53;;;19.28;100.00
48790;BME280;41718;51.980;5.734;2022-07-21T00:23:50;101629.09;;;19.25;100.00
48790;BME280;41718;51.980;5.734;2022-07-21T00:28:52;101622.25;;;19.06;100.00
48790;BME280;41718;51.980;5.734;2022-07-21T00:33:54;101617.94;;;18.97;100.00
48790;BME280;41718;51.980;5.734;2022-07-21T00:38:56;101615.16;;;19.17;100.00
48790;BME280;41718;51.980;5.734;2022-07-21T00:43:59;101611.75;;;19.08;100.00
48790;BME280;41718;51.980;5.734;2022-07-21T00:49:01;101605.84;;;18.76;100.00
48790;BME280;41718;51.980;5.734;2022-07-21T00:54:03;101606.66;;;18.83;100.00
48790;BME280;41718;51.980;5.734;2022-07-21T00:59:05;101603.09;;;18.96;100.00
48790;BME280;41718;51.980;5.734;2022-07-21T01:04:07;101597.88;;;18.89;100.00
48790;BME280;41718;51.980;5.734;2022-07-21T01:09:08;101595.41;;;18.70;100.00
48790;BME280;41718;51.980;5.734;2022-07-21T01:14:12;101581.31;;;18.82;100.00
48790;BME280;41718;51.980;5.734;2022-07-21T01:19:14;101569.97;;;18.82;100.00
48790;BME280;41718;51.980;5.734;2022-07-21T01:24:15;101568.34;;;18.68;100.00
48790;BME280;41718;51.980;5.734;2022-07-21T01:29:18;101569.31;;;18.50;100.00
48790;BME280;41718;51.980;5.734;2022-07-21T01:34:20;101585.84;;;18.54;100.00
48790;BME280;41718;51.980;5.734;2022-07-21T01:39:21;101590.25;;;18.49;100.00
48790;BME280;41718;51.980;5.734;2022-07-21T01:44:43;101595.50;;;18.49;100.00
48790;BME280;41718;51.980;5.734;2022-07-21T01:49:48;101592.91;;;18.43;100.00
48790;BME280;41718;51.980;5.734;2022-07-21T01:54:50;101589.47;;;18.32;100.00
48790;BME280;41718;51.980;5.734;2022-07-21T01:59:55;101581.66;;;18.24;100.00
48790;BME280;41718;51.980;5.734;2022-07-21T02:04:56;101583.31;;;18.45;100.00
48790;BME280;41718;51.980;5.734;2022-07-21T02:09:58;101569.22;;;18.63;100.00
48790;BME280;41718;51.980;5.734;2022-07-21T02:15:00;101584.16;;;18.50;100.00
48790;BME280;41718;51.980;5.734;2022-07-21T02:20:02;101576.31;;;18.42;100.00
48790;BME280;41718;51.980;5.734;2022-07-21T02:25:04;101565.84;;;18.41;100.00
48790;BME280;41718;51.980;5.734;2022-07-21T02:30:06;101562.31;;;18.46;100.00
48790;BME280;41718;51.980;5.734;2022-07-21T02:35:08;101561.59;;;18.18;100.00
48790;BME280;41718;51.980;5.734;2022-07-21T02:40:10;101554.59;;;18.26;100.00
48790;BME280;41718;51.980;5.734;2022-07-21T02:45:12;101553.72;;;18.20;100.00
48790;BME280;41718;51.980;5.734;2022-07-21T02:50:22;101550.28;;;18.13;100.00
48790;BME280;41718;51.980;5.734;2022-07-21T02:55:25;101558.16;;;18.09;100.00
48790;BME280;41718;51.980;5.734;2022-07-21T03:00:27;101554.72;;;17.96;100.00
48790;BME280;41718;51.980;5.734;2022-07-21T03:05:28;101545.06;;;18.07;100.00
48790;BME280;41718;51.980;5.734;2022-07-21T03:10:30;101553.78;;;18.09;100.00
48790;BME280;41718;51.980;5.734;2022-07-21T03:15:32;101551.25;;;17.95;100.00
48790;BME280;41718;51.980;5.734;2022-07-21T03:20:37;101552.13;;;17.93;100.00
48790;BME280;41718;51.980;5.734;2022-07-21T03:25:39;101543.41;;;17.89;100.00
48790;BME280;41718;51.980;5.734;2022-07-21T03:30:40;101534.63;;;18.01;100.00
48790;BME280;41718;51.980;5.734;2022-07-21T03:35:42;101536.41;;;17.87;100.00
48790;BME280;41718;51.980;5.734;2022-07-21T03:40:44;101553.03;;;17.87;100.00
48790;BME280;41718;51.980;5.734;2022-07-21T03:45:45;101555.63;;;17.86;100.00
48790;BME280;41718;51.980;5.734;2022-07-21T03:50:47;101554.72;;;17.96;100.00
48790;BME280;41718;51.980;5.734;2022-07-21T03:55:49;101560.00;;;17.90;100.00
48790;BME280;41718;51.980;5.734;2022-07-21T04:00:50;101566.06;;;17.96;100.00
48790;BME280;41718;51.980;5.734;2022-07-21T04:05:52;101564.31;;;17.92;100.00
48790;BME280;41718;51.980;5.734;2022-07-21T04:10:53;101559.16;;;17.82;100.00
48790;BME280;41718;51.980;5.734;2022-07-21T04:15:55;101567.00;;;17.80;100.00
48790;BME280;41718;51.980;5.734;2022-07-21T04:20:57;101559.09;;;17.98;100.00
48790;BME280;41718;51.980;5.734;2022-07-21T04:25:58;101570.47;;;17.88;100.00
48790;BME280;41718;51.980;5.734;2022-07-21T04:31:00;101566.06;;;18.04;100.00
48790;BME280;41718;51.980;5.734;2022-07-21T04:36:02;101565.16;;;18.05;100.00
48790;BME280;41718;51.980;5.734;2022-07-21T04:41:04;101568.66;;;17.98;100.00
48790;BME280;41718;51.980;5.734;2022-07-21T04:46:05;101561.75;;;17.88;100.00
48790;BME280;41718;51.980;5.734;2022-07-21T04:51:15;101570.44;;;17.94;100.00
48790;BME280;41718;51.980;5.734;2022-07-21T04:56:17;101559.16;;;17.82;100.00
48790;BME280;41718;51.980;5.734;2022-07-21T05:01:18;101553.91;;;17.80;100.00
48790;BME280;41718;51.980;5.734;2022-07-21T05:06:20;101555.69;;;17.81;100.00
48790;BME280;41718;51.980;5.734;2022-07-21T05:11:27;101552.16;;;17.85;100.00
48790;BME280;41718;51.980;5.734;2022-07-21T05:16:29;101545.19;;;17.80;100.00
48790;BME280;41718;51.980;5.734;2022-07-21T05:21:30;101538.16;;;17.86;100.00
48790;BME280;41718;51.980;5.734;2022-07-21T05:26:32;101546.91;;;17.85;100.00
48790;BME280;41718;51.980;5.734;2022-07-21T05:31:33;101536.44;;;17.81;100.00
48790;BME280;41718;51.980;5.734;2022-07-21T05:36:35;101540.84;;;17.82;100.00
48790;BME280;41718;51.980;5.734;2022-07-21T05:41:38;101534.66;;;17.96;100.00
48790;BME280;41718;51.980;5.734;2022-07-21T05:46:40;101532.03;;;17.95;100.00
48790;BME280;41718;51.980;5.734;2022-07-21T05:51:41;101529.44;;;17.90;100.00
48790;BME280;41718;51.980;5.734;2022-07-21T05:56:43;101537.28;;;17.95;100.00
48790;BME280;41718;51.980;5.734;2022-07-21T06:01:45;101535.44;;;18.09;100.00
48790;BME280;41718;51.980;5.734;2022-07-21T06:06:46;101528.47;;;18.11;100.00
48790;BME280;41718;51.980;5.734;2022-07-21T06:11:48;101514.50;;;18.09;100.00
48790;BME280;41718;51.980;5.734;2022-07-21T06:16:50;101511.75;;;18.31;100.00
48790;BME280;41718;51.980;5.734;2022-07-21T06:21:52;101521.50;;;18.09;100.00
48790;BME280;41718;51.980;5.734;2022-07-21T06:26:53;101527.56;;;18.21;100.00
48790;BME280;41718;51.980;5.734;2022-07-21T06:32:06;101530.19;;;18.21;100.00
48790;BME280;41718;51.980;5.734;2022-07-21T06:37:07;101534.53;;;18.21;100.00
48790;BME280;41718;51.980;5.734;2022-07-21T06:42:09;101533.63;;;18.25;100.00
48790;BME280;41718;51.980;5.734;2022-07-21T06:47:10;101544.09;;;18.25;100.00
48790;BME280;41718;51.980;5.734;2022-07-21T06:52:12;101547.56;;;18.32;100.00
48790;BME280;41718;51.980;5.734;2022-07-21T06:57:14;101563.28;;;18.30;100.00
48790;BME280;41718;51.980;5.734;2022-07-21T07:02:16;101557.94;;;18.48;100.00
48790;BME280;41718;51.980;5.734;2022-07-21T07:07:17;101563.16;;;18.56;100.00
48790;BME280;41718;51.980;5.734;2022-07-21T07:12:19;101560.56;;;18.50;100.00
48790;BME280;41718;51.980;5.734;2022-07-21T07:17:40;101570.94;;;18.64;100.00
48790;BME280;41718;51.980;5.734;2022-07-21T07:22:42;101583.19;;;18.60;100.00
48790;BME280;41718;51.980;5.734;2022-07-21T07:27:46;101588.44;;;18.60;100.00
48790;BME280;41718;51.980;5.734;2022-07-21T07:32:48;101587.56;;;18.63;100.00
48790;BME280;41718;51.980;5.734;2022-07-21T07:37:49;101594.44;;;18.82;100.00
48790;BME280;41718;51.980;5.734;2022-07-21T07:42:51;101595.44;;;18.58;100.00
48790;BME280;41718;51.980;5.734;2022-07-21T07:47:54;101594.56;;;18.68;100.00
48790;BME280;41718;51.980;5.734;2022-07-21T07:52:55;101603.28;;;18.60;100.00
48790;BME280;41718;51.980;5.734;2022-07-21T07:57:57;101598.91;;;18.60;100.00
48790;BME280;41718;51.980;5.734;2022-07-21T08:02:59;101596.44;;;18.40;100.00
48790;BME280;41718;51.980;5.734;2022-07-21T08:08:02;101592.88;;;18.55;100.00
48790;BME280;41718;51.980;5.734;2022-07-21T08:13:04;101578.78;;;18.65;100.00
48790;BME280;41718;51.980;5.734;2022-07-21T08:18:08;101571.81;;;18.64;100.00
48790;BME280;41718;51.980;5.734;2022-07-21T08:23:10;101570.09;;;18.63;100.00
48790;BME280;41718;51.980;5.734;2022-07-21T08:28:12;101560.47;;;18.64;100.00
48790;BME280;41718;51.980;5.734;2022-07-21T08:33:14;101557.84;;;18.68;100.00
48790;BME280;41718;51.980;5.734;2022-07-21T08:38:16;101567.41;;;18.78;100.00
48790;BME280;41718;51.980;5.734;2022-07-21T08:43:18;101566.53;;;18.75;100.00
48790;BME280;41718;51.980;5.734;2022-07-21T08:48:27;101573.63;;;18.58;100.00
48790;BME280;41718;51.980;5.734;2022-07-21T08:53:30;101579.69;;;18.60;100.00
48790;BME280;41718;51.980;5.734;2022-07-21T08:58:32;101581.72;;;18.16;100.00
48790;BME280;41718;51.980;5.734;2022-07-21T09:03:37;101593.09;;;18.08;100.00
48790;BME280;41718;51.980;5.734;2022-07-21T09:08:43;101577.44;;;17.98;100.00
48790;BME280;41718;51.980;5.734;2022-07-21T09:13:49;101569.56;;;17.97;100.00
48790;BME280;41718;51.980;5.734;2022-07-21T09:18:53;101553.09;;;17.55;100.00
48790;BME280;41718;51.980;5.734;2022-07-21T09:24:21;101561.78;;;17.65;100.00
48790;BME280;41718;51.980;5.734;2022-07-21T09:30:04;101560.06;;;17.61;100.00
48790;BME280;41718;51.980;5.734;2022-07-21T09:35:11;101566.16;;;17.66;100.00
48790;BME280;41718;51.980;5.734;2022-07-21T09:40:16;101567.00;;;17.71;100.00
48790;BME280;41718;51.980;5.734;2022-07-21T09:45:21;101560.03;;;17.78;100.00
48790;BME280;41718;51.980;5.734;2022-07-21T09:50:22;101553.06;;;17.66;100.00
48790;BME280;41718;51.980;5.734;2022-07-21T09:55:30;101559.09;;;17.91;100.00
48790;BME280;41718;51.980;5.734;2022-07-21T10:00:33;101559.13;;;17.89;100.00
48790;BME280;41718;51.980;5.734;2022-07-21T10:05:35;101567.00;;;17.83;100.00
48790;BME280;41718;51.980;5.734;2022-07-21T10:10:38;101562.59;;;17.90;100.00
48790;BME280;41718;51.980;5.734;2022-07-21T10:16:00;101568.69;;;17.96;100.00
48790;BME280;41718;51.980;5.734;2022-07-21T10:21:23;101564.34;;;17.95;100.00
48790;BME280;41718;51.980;5.734;2022-07-21T10:26:27;101563.44;;;17.98;100.00
48790;BME280;41718;51.980;5.734;2022-07-21T10:31:29;101557.38;;;17.90;100.00
48790;BME280;41718;51.980;5.734;2022-07-21T10:41:37;101574.88;;;17.77;100.00
48790;BME280;41718;51.980;5.734;2022-07-21T10:46:41;101580.09;;;17.79;100.00
48790;BME280;41718;51.980;5.734;2022-07-21T10:51:46;101577.44;;;17.86;100.00
48790;BME280;41718;51.980;5.734;2022-07-21T10:56:48;101586.16;;;17.87;100.00
48790;BME280;41718;51.980;5.734;2022-07-21T11:01:50;101590.53;;;17.94;100.00
48790;BME280;41718;51.980;5.734;2022-07-21T11:06:51;101587.94;;;17.85;100.00
48790;BME280;41718;51.980;5.734;2022-07-21T11:12:03;101580.09;;;17.79;100.00
48790;BME280;41718;51.980;5.734;2022-07-21T11:17:10;101596.69;;;17.78;100.00
48790;BME280;41718;51.980;5.734;2022-07-21T11:27:23;101602.72;;;17.92;100.00
48790;BME280;41718;51.980;5.734;2022-07-21T11:32:25;101604.50;;;17.85;100.00
48790;BME280;41718;51.980;5.734;2022-07-21T11:37:31;101608.88;;;17.85;100.00
48790;BME280;41718;51.980;5.734;2022-07-21T11:42:37;101613.25;;;17.83;100.00
48790;BME280;41718;51.980;5.734;2022-07-21T11:47:39;101619.34;;;17.86;100.00
48790;BME280;41718;51.980;5.734;2022-07-21T11:52:49;101614.13;;;17.80;100.00
48790;BME280;41718;51.980;5.734;2022-07-21T11:57:51;101628.06;;;17.94;100.00
48790;BME280;41718;51.980;5.734;2022-07-21T12:03:04;101626.34;;;17.70;100.00
48790;BME280;41718;51.980;5.734;2022-07-21T12:08:08;101619.38;;;17.77;100.00
48790;BME280;41718;51.980;5.734;2022-07-21T12:13:10;101614.09;;;17.85;100.00
48790;BME280;41718;51.980;5.734;2022-07-21T12:18:20;101627.22;;;17.79;100.00
48790;BME280;41718;51.980;5.734;2022-07-21T12:23:27;101628.94;;;17.87;100.00
48790;BME280;41718;51.980;5.734;2022-07-21T12:28:50;101637.66;;;17.98;100.00
48790;BME280;41718;51.980;5.734;2022-07-21T12:33:56;101638.50;;;18.02;100.00
48790;BME280;41718;51.980;5.734;2022-07-21T12:44:41;101642.03;;;17.84;100.00
48790;BME280;41718;51.980;5.734;2022-07-21T12:50:03;101643.75;;;17.96;100.00
48790;BME280;41718;51.980;5.734;2022-07-21T12:55:22;101643.78;;;17.85;100.00
48790;BME280;41718;51.980;5.734;2022-07-21T13:00:28;101646.38;;;17.87;100.00
48790;BME280;41718;51.980;5.734;2022-07-21T13:05:30;101649.00;;;17.94;100.00
48790;BME280;41718;51.980;5.734;2022-07-21T13:10:31;101648.09;;;17.97;100.00
48790;BME280;41718;51.980;5.734;2022-07-21T13:15:33;101651.63;;;17.87;100.00
48790;BME280;41718;51.980;5.734;2022-07-21T13:20:35;101644.66;;;17.86;100.00
48790;BME280;41718;51.980;5.734;2022-07-21T13:25:37;101642.91;;;17.85;100.00
48790;BME280;41718;51.980;5.734;2022-07-21T13:30:39;101651.63;;;17.71;100.00
48790;BME280;41718;51.980;5.734;2022-07-21T13:35:43;101650.75;;;17.91;100.00
48790;BME280;41718;51.980;5.734;2022-07-21T13:40:47;101656.00;;;17.79;100.00
48790;BME280;41718;51.980;5.734;2022-07-21T13:46:09;101652.50;;;17.89;100.00
48790;BME280;41718;51.980;5.734;2022-07-21T13:51:13;101644.69;;;17.81;100.00
48790;BME280;41718;51.980;5.734;2022-07-21T13:56:15;101649.88;;;17.89;100.00
48790;BME280;41718;51.980;5.734;2022-07-21T14:01:18;101653.34;;;18.01;100.00
48790;BME280;41718;51.980;5.734;2022-07-21T14:06:27;101649.84;;;18.10;100.00
48790;BME280;41718;51.980;5.734;2022-07-21T14:11:28;101657.69;;;18.06;100.00
48790;BME280;41718;51.980;5.734;2022-07-21T14:16:30;101642.91;;;17.86;100.00
48790;BME280;41718;51.980;5.734;2022-07-21T14:21:33;101654.22;;;17.91;100.00
48790;BME280;41718;51.980;5.734;2022-07-21T14:26:35;101657.66;;;18.22;100.00
48790;BME280;41718;51.980;5.734;2022-07-21T14:31:37;101657.63;;;18.28;100.00
48790;BME280;41718;51.980;5.734;2022-07-21T14:36:39;101648.03;;;18.18;100.00
48790;BME280;41718;51.980;5.734;2022-07-21T14:41:41;101651.50;;;18.33;100.00
48790;BME280;41718;51.980;5.734;2022-07-21T14:46:44;101649.69;;;18.38;100.00
48790;BME280;41718;51.980;5.734;2022-07-21T14:51:46;101654.13;;;18.20;100.00
48790;BME280;41718;51.980;5.734;2022-07-21T14:56:49;101656.78;;;18.13;100.00
48790;BME280;41718;51.980;5.734;2022-07-21T15:02:09;101651.53;;;18.26;100.00
48790;BME280;41718;51.980;5.734;2022-07-21T15:07:21;101665.56;;;18.04;100.00
48790;BME280;41718;51.980;5.734;2022-07-21T15:12:22;101652.44;;;18.13;100.00
48790;BME280;41718;51.980;5.734;2022-07-21T15:17:31;101662.91;;;18.13;100.00
48790;BME280;41718;51.980;5.734;2022-07-21T15:22:34;101669.03;;;18.11;100.00
48790;BME280;41718;51.980;5.734;2022-07-21T15:27:41;101658.59;;;17.94;100.00
48790;BME280;41718;51.980;5.734;2022-07-21T15:32:46;101671.66;;;18.06;100.00
48790;BME280;41718;51.980;5.734;2022-07-21T15:37:51;101662.91;;;18.07;100.00
48790;BME280;41718;51.980;5.734;2022-07-21T15:42:53;101661.19;;;18.03;100.00
48790;BME280;41718;51.980;5.734;2022-07-21T15:47:59;101663.75;;;18.18;100.00
48790;BME280;41718;51.980;5.734;2022-07-21T15:53:04;101655.84;;;18.32;100.00
48790;BME280;41718;51.980;5.734;2022-07-21T15:58:06;101667.16;;;18.42;100.00
48790;BME280;41718;51.980;5.734;2022-07-21T16:03:08;101668.13;;;18.21;100.00
48790;BME280;41718;51.980;5.734;2022-07-21T16:08:16;101673.34;;;18.27;100.00
48790;BME280;41718;51.980;5.734;2022-07-21T16:13:24;101682.13;;;18.12;100.00
48790;BME280;41718;51.980;5.734;2022-07-21T16:18:34;101683.00;;;18.07;100.00
48790;BME280;41718;51.980;5.734;2022-07-21T16:23:46;101689.13;;;17.98;100.00
48790;BME280;41718;51.980;5.734;2022-07-21T16:29:11;101691.78;;;17.89;100.00
48790;BME280;41718;51.980;5.734;2022-07-21T16:34:14;101709.25;;;17.82;100.00
48790;BME280;41718;51.980;5.734;2022-07-21T16:39:19;101713.56;;;17.57;100.00
48790;BME280;41718;51.980;5.734;2022-07-21T16:44:27;101712.69;;;17.52;100.00
48790;BME280;41718;51.980;5.734;2022-07-21T16:49:29;101731.00;;;17.38;100.00
48790;BME280;41718;51.980;5.734;2022-07-21T16:54:34;101722.28;;;17.26;100.00
48790;BME280;41718;51.980;5.734;2022-07-21T16:59:37;101731.00;;;17.29;100.00
48790;BME280;41718;51.980;5.734;2022-07-21T17:04:49;101747.50;;;17.07;100.00
48790;BME280;41718;51.980;5.734;2022-07-21T17:09:52;101755.41;;;17.20;100.00
48790;BME280;41718;51.980;5.734;2022-07-21T17:14:59;101760.59;;;17.13;100.00
48790;BME280;41718;51.980;5.734;2022-07-21T17:20:11;101764.94;;;16.97;100.00
48790;BME280;41718;51.980;5.734;2022-07-21T17:25:26;101773.66;;;16.98;100.00
48790;BME280;41718;51.980;5.734;2022-07-21T17:30:41;101771.00;;;16.85;100.00
48790;BME280;41718;51.980;5.734;2022-07-21T17:35:51;101772.75;;;17.02;100.00
48790;BME280;41718;51.980;5.734;2022-07-21T17:40:55;101774.47;;;16.86;100.00
48790;BME280;41718;51.980;5.734;2022-07-21T17:46:00;101779.63;;;16.71;100.00
48790;BME280;41718;51.980;5.734;2022-07-21T17:51:14;101767.47;;;16.74;100.00
48790;BME280;41718;51.980;5.734;2022-07-21T17:56:23;101780.38;;;16.56;100.00
48790;BME280;41718;51.980;5.734;2022-07-21T18:01:36;101790.84;;;16.62;100.00
48790;BME280;41718;51.980;5.734;2022-07-21T18:06:39;101803.06;;;16.57;100.00
48790;BME280;41718;51.980;5.734;2022-07-21T18:11:52;101801.31;;;16.57;100.00
48790;BME280;41718;51.980;5.734;2022-07-21T18:16:57;101823.00;;;16.47;100.00
48790;BME280;41718;51.980;5.734;2022-07-21T18:22:02;101835.25;;;16.53;100.00
48790;BME280;41718;51.980;5.734;2022-07-21T18:27:09;101829.09;;;16.48;100.00
48790;BME280;41718;51.980;5.734;2022-07-21T18:32:49;101842.09;;;16.35;100.00
48790;BME280;41718;51.980;5.734;2022-07-21T18:37:51;101840.44;;;16.48;100.00
48790;BME280;41718;51.980;5.734;2022-07-21T18:43:03;101847.28;;;16.29;100.00
48790;BME280;41718;51.980;5.734;2022-07-21T18:48:13;101856.91;;;16.38;100.00
48790;BME280;41718;51.980;5.734;2022-07-21T18:53:44;101861.16;;;16.27;100.00
48790;BME280;41718;51.980;5.734;2022-07-21T18:58:46;101859.38;;;16.20;100.00
48790;BME280;41718;51.980;5.734;2022-07-21T19:03:50;101865.41;;;16.14;100.00
48790;BME280;41718;51.980;5.734;2022-07-21T19:08:52;101880.22;;;16.12;100.00
48790;BME280;41718;51.980;5.734;2022-07-21T19:13:54;101871.41;;;16.04;100.00
48790;BME280;41718;51.980;5.734;2022-07-21T19:18:57;101875.75;;;16.03;100.00
48790;BME280;41718;51.980;5.734;2022-07-21T19:24:00;101891.44;;;16.03;100.00
48790;BME280;41718;51.980;5.734;2022-07-21T19:29:03;101884.34;;;15.92;100.00
48790;BME280;41718;51.980;5.734;2022-07-21T19:34:05;101897.50;;;16.02;100.00
48790;BME280;41718;51.980;5.734;2022-07-21T19:39:09;101900.88;;;15.90;100.00
48790;BME280;41718;51.980;5.734;2022-07-21T19:44:14;101912.19;;;15.89;100.00
48790;BME280;41718;51.980;5.734;2022-07-21T19:49:26;101915.56;;;15.79;100.00
48790;BME280;41718;51.980;5.734;2022-07-21T19:54:35;101916.50;;;15.87;100.00
48790;BME280;41718;51.980;5.734;2022-07-21T19:59:37;101919.22;;;15.97;100.00
48790;BME280;41718;51.980;5.734;2022-07-21T20:04:45;101920.78;;;15.78;100.00
48790;BME280;41718;51.980;5.734;2022-07-21T20:09:47;101927.66;;;15.73;100.00
48790;BME280;41718;51.980;5.734;2022-07-21T20:14:50;101933.00;;;15.85;100.00
48790;BME280;41718;51.980;5.734;2022-07-21T20:19:52;101928.47;;;15.67;100.00
48790;BME280;41718;51.980;5.734;2022-07-21T20:24:56;101936.34;;;15.72;100.00
48790;BME280;41718;51.980;5.734;2022-07-21T20:29:57;101932.78;;;15.65;100.00
48790;BME280;41718;51.980;5.734;2022-07-21T20:35:00;101936.19;;;15.61;100.00
48790;BME280;41718;51.980;5.734;2022-07-21T20:40:14;101943.09;;;15.57;100.00
48790;BME280;41718;51.980;5.734;2022-07-21T20:45:26;101950.94;;;15.57;100.00
48790;BME280;41718;51.980;5.734;2022-07-21T20:50:29;101954.38;;;15.55;100.00
48790;BME280;41718;51.980;5.734;2022-07-21T20:55:31;101955.19;;;15.51;100.00
48790;BME280;41718;51.980;5.734;2022-07-21T21:00:48;101957.75;;;15.46;100.00
48790;BME280;41718;51.980;5.734;2022-07-21T21:05:59;101953.31;;;15.37;100.00
48790;BME280;41718;51.980;5.734;2022-07-21T21:11:01;101957.69;;;15.42;100.00
48790;BME280;41718;51.980;5.734;2022-07-21T21:16:03;101967.31;;;15.46;100.00
48790;BME280;41718;51.980;5.734;2022-07-21T21:21:06;101967.13;;;15.32;100.00
48790;BME280;41718;51.980;5.734;2022-07-21T21:26:08;101966.19;;;15.27;100.00
48790;BME280;41718;51.980;5.734;2022-07-21T21:31:10;101968.97;;;15.41;100.00
48790;BME280;41718;51.980;5.734;2022-07-21T21:36:21;101966.22;;;15.30;100.00
48790;BME280;41718;51.980;5.734;2022-07-21T21:41:28;101976.81;;;15.42;100.00
48790;BME280;41718;51.980;5.734;2022-07-21T21:46:30;101982.78;;;15.33;100.00
48790;BME280;41718;51.980;5.734;2022-07-21T21:51:33;101974.75;;;15.18;100.00
48790;BME280;41718;51.980;5.734;2022-07-21T21:56:36;101982.59;;;15.20;100.00
48790;BME280;41718;51.980;5.734;2022-07-21T22:01:38;101979.94;;;15.17;100.00
48790;BME280;41718;51.980;5.734;2022-07-21T22:06:41;101983.50;;;15.22;100.00
48790;BME280;41718;51.980;5.734;2022-07-21T22:11:42;101989.50;;;15.15;100.00
48790;BME280;41718;51.980;5.734;2022-07-21T22:16:44;101994.78;;;15.21;100.00
48790;BME280;41718;51.980;5.734;2022-07-21T22:21:49;101993.63;;;15.02;100.00
48790;BME280;41718;51.980;5.734;2022-07-21T22:26:51;102007.59;;;15.05;100.00
48790;BME280;41718;51.980;5.734;2022-07-21T22:31:52;102011.94;;;15.08;100.00
48790;BME280;41718;51.980;5.734;2022-07-21T22:36:56;102002.56;;;15.18;100.00
48790;BME280;41718;51.980;5.734;2022-07-21T22:41:58;102009.31;;;15.03;100.00
48790;BME280;41718;51.980;5.734;2022-07-21T22:47:00;102012.78;;;15.04;100.00
48790;BME280;41718;51.980;5.734;2022-07-21T22:52:03;102015.56;;;15.15;100.00
48790;BME280;41718;51.980;5.734;2022-07-21T22:57:05;102016.34;;;15.09;100.00
48790;BME280;41718;51.980;5.734;2022-07-21T23:02:06;102017.16;;;15.06;100.00
48790;BME280;41718;51.980;5.734;2022-07-21T23:07:08;102018.78;;;15.00;100.00
48790;BME280;41718;51.980;5.734;2022-07-21T23:12:11;102023.06;;;14.95;100.00
48790;BME280;41718;51.980;5.734;2022-07-21T23:17:13;102017.84;;;14.96;100.00
48790;BME280;41718;51.980;5.734;2022-07-21T23:22:15;102022.47;;;15.14;100.00
48790;BME280;41718;51.980;5.734;2022-07-21T23:27:17;102024.91;;;15.02;100.00
48790;BME280;41718;51.980;5.734;2022-07-21T23:32:19;102017.94;;;15.02;100.00
48790;BME280;41718;51.980;5.734;2022-07-21T23:37:20;102009.06;;;14.90;100.00
48790;BME280;41718;51.980;5.734;2022-07-21T23:42:22;102008.28;;;14.94;100.00
48790;BME280;41718;51.980;5.734;2022-07-21T23:47:23;102007.25;;;14.85;100.00
48790;BME280;41718;51.980;5.734;2022-07-21T23:52:25;102006.53;;;14.93;100.00
48790;BME280;41718;51.980;5.734;2022-07-21T23:57:27;102010.88;;;14.94;100.00
